Date,TemperatureHighF,TemperatureAvgF,TemperatureLowF,DewpointHighF,DewpointAvgF,DewpointLowF,HumidityHigh,HumidityAvg,HumidityLow,PressureMaxIn,PressureMinIn,WindSpeedMaxMPH,WindSpeedAvgMPH,GustSpeedMaxMPH,PrecipitationSumIn
2013-1-1,27.4,22.2,17.1,19.7,14.0,10.4,80,71,59,30.18,30.04,17,7,19,0.00
2013-1-2,25.9,22.6,18.4,21.4,17.3,12.7,83,80,76,30.20,30.09,18,6,18,0.00
2013-1-3,29.3,24.6,18.9,25.7,19.7,12.0,87,81,74,30.17,30.06,21,9,21,0.00
2013-1-4,32.1,28.4,25.1,24.3,22.5,20.6,84,78,71,30.19,30.00,30,13,30,0.00
2013-1-5,36.5,28.0,17.8,30.6,23.8,15.4,94,85,70,30.29,30.01,17,7,17,0.00
2013-1-6,35.7,34.0,31.7,33.3,30.5,27.1,93,87,78,30.27,29.90,20,10,20,0.07
2013-1-7,38.1,32.1,29.0,27.3,25.1,22.8,86,75,60,30.36,30.13,26,10,26,0.00
2013-1-8,39.5,32.2,27.4,28.8,25.6,22.7,84,76,64,30.25,30.14,14,7,15,0.00
2013-1-9,45.9,39.3,30.7,34.6,30.2,25.6,85,70,49,30.42,30.00,32,15,32,0.01
2013-1-10,42.2,33.2,23.0,33.3,27.6,21.3,94,80,61,30.59,30.17,17,5,17,0.09
2013-1-11,54.9,45.0,35.9,51.3,42.5,32.8,96,91,81,30.16,29.74,22,10,22,0.53
2013-1-12,59.4,51.6,46.8,50.2,45.7,36.8,92,81,65,29.92,29.79,20,8,20,0.00
2013-1-13,46.9,37.1,28.3,39.4,35.1,25.5,96,93,67,30.04,29.77,21,6,21,0.46
2013-1-14,28.3,22.2,15.3,25.9,17.8,13.1,92,83,72,30.46,30.04,26,8,26,0.00
2013-1-15,29.9,20.8,11.7,23.4,16.2,9.2,94,83,64,30.47,30.19,9,2,9,0.06
2013-1-16,36.2,26.9,15.2,29.6,19.6,12.7,93,76,47,30.18,29.81,29,9,29,0.00
2013-1-17,33.9,27.9,17.2,29.6,20.3,6.6,87,73,56,30.33,29.96,31,11,31,0.00
2013-1-18,36.3,24.8,11.3,24.1,16.7,8.4,91,72,52,30.45,29.94,34,12,35,0.00
2013-1-19,46.3,41.8,36.0,36.1,31.5,24.1,76,67,60,29.94,29.52,29,16,29,0.00
2013-1-20,43.5,21.5,13.5,35.8,11.0,4.0,77,64,46,30.19,29.51,45,19,45,0.00
2013-1-21,16.2,12.4,4.7,11.9,4.7,-3.4,86,71,59,30.17,29.99,26,10,26,0.00
2013-1-22,10.1,4.7,-1.1,2.6,-3.4,-9.2,80,69,55,30.33,30.14,25,10,25,0.00
2013-1-23,17.7,10.3,2.0,12.5,5.1,-2.9,88,79,66,30.33,30.11,17,6,17,0.00
2013-1-24,16.8,10.5,4.9,11.9,4.6,0.3,89,77,60,30.64,30.17,15,4,15,0.00
2013-1-25,22.2,17.2,11.0,16.5,12.5,4.4,88,81,73,30.55,30.05,17,6,17,0.00
2013-1-26,28.2,21.3,13.1,18.7,16.1,10.2,89,81,62,30.47,30.07,16,6,16,0.04
2013-1-27,29.2,22.2,11.2,27.1,16.6,8.3,92,80,60,30.50,30.13,21,7,21,0.00
2013-1-28,44.9,37.3,29.2,44.1,35.9,27.2,97,95,91,30.17,29.85,16,10,16,0.37
2013-1-29,58.4,51.7,36.7,56.0,50.2,35.7,98,95,89,29.87,29.27,14,8,29,0.40
2013-1-30,51.6,46.2,32.4,51.0,44.6,28.4,98,94,85,29.33,29.08,31,8,31,0.56
2013-1-31,32.0,21.7,16.0,28.6,16.2,11.9,90,79,67,29.90,29.22,43,18,43,0.00